sensor_id;sensor_type;location;lat;lon;timestamp;P1;durP1;ratioP1;P2;durP2;ratioP2
35324;SDS011;35135;47.510;19.036;2022-07-30T00:02:20;4.57;;;2.92;;
35324;SDS011;35135;47.510;19.036;2022-07-30T00:04:50;3.90;;;3.50;;
35324;SDS011;35135;47.510;19.036;2022-07-30T00:07:24;4.30;;;3.53;;
35324;SDS011;35135;47.510;19.036;2022-07-30T00:09:53;3.53;;;3.22;;
35324;SDS011;35135;47.510;19.036;2022-07-30T00:12:22;4.35;;;3.20;;
35324;SDS011;35135;47.510;19.036;2022-07-30T00:14:48;4.28;;;3.40;;
35324;SDS011;35135;47.510;19.036;2022-07-30T00:17:17;4.35;;;3.47;;
35324;SDS011;35135;47.510;19.036;2022-07-30T00:19:50;3.83;;;3.42;;
35324;SDS011;35135;47.510;19.036;2022-07-30T00:22:22;4.60;;;3.72;;
35324;SDS011;35135;47.510;19.036;2022-07-30T00:24:50;3.58;;;3.25;;
35324;SDS011;35135;47.510;19.036;2022-07-30T00:27:21;4.40;;;3.30;;
35324;SDS011;35135;47.510;19.036;2022-07-30T00:29:49;3.40;;;3.08;;
35324;SDS011;35135;47.510;19.036;2022-07-30T00:32:18;4.05;;;3.30;;
35324;SDS011;35135;47.510;19.036;2022-07-30T00:34:54;4.35;;;3.15;;
35324;SDS011;35135;47.510;19.036;2022-07-30T00:37:24;3.90;;;3.33;;
35324;SDS011;35135;47.510;19.036;2022-07-30T00:39:52;4.00;;;3.33;;
35324;SDS011;35135;47.510;19.036;2022-07-30T00:42:20;3.88;;;3.42;;
35324;SDS011;35135;47.510;19.036;2022-07-30T00:44:52;4.03;;;3.63;;
35324;SDS011;35135;47.510;19.036;2022-07-30T00:47:20;3.88;;;3.50;;
35324;SDS011;35135;47.510;19.036;2022-07-30T00:49:55;3.58;;;3.28;;
35324;SDS011;35135;47.510;19.036;2022-07-30T00:52:26;3.45;;;3.15;;
35324;SDS011;35135;47.510;19.036;2022-07-30T00:54:56;4.13;;;3.72;;
35324;SDS011;35135;47.510;19.036;2022-07-30T00:57:26;4.82;;;3.13;;
35324;SDS011;35135;47.510;19.036;2022-07-30T00:59:55;3.70;;;3.38;;
35324;SDS011;35135;47.510;19.036;2022-07-30T01:02:24;3.75;;;3.17;;
35324;SDS011;35135;47.510;19.036;2022-07-30T01:07:24;3.92;;;3.47;;
35324;SDS011;35135;47.510;19.036;2022-07-30T01:09:58;4.18;;;3.50;;
35324;SDS011;35135;47.510;19.036;2022-07-30T01:12:27;3.97;;;3.45;;
35324;SDS011;35135;47.510;19.036;2022-07-30T01:14:57;3.88;;;3.33;;
35324;SDS011;35135;47.510;19.036;2022-07-30T01:17:28;3.63;;;3.00;;
35324;SDS011;35135;47.510;19.036;2022-07-30T01:20:01;4.22;;;3.30;;
35324;SDS011;35135;47.510;19.036;2022-07-30T01:22:39;3.80;;;3.15;;
35324;SDS011;35135;47.510;19.036;2022-07-30T01:28:15;3.47;;;3.17;;
35324;SDS011;35135;47.510;19.036;2022-07-30T01:31:04;3.78;;;3.25;;
35324;SDS011;35135;47.510;19.036;2022-07-30T01:33:34;4.15;;;3.22;;
35324;SDS011;35135;47.510;19.036;2022-07-30T01:36:09;3.95;;;3.58;;
35324;SDS011;35135;47.510;19.036;2022-07-30T01:38:44;3.70;;;3.40;;
35324;SDS011;35135;47.510;19.036;2022-07-30T01:41:13;4.20;;;3.70;;
35324;SDS011;35135;47.510;19.036;2022-07-30T01:43:44;4.10;;;3.28;;
35324;SDS011;35135;47.510;19.036;2022-07-30T01:46:13;4.15;;;3.47;;
35324;SDS011;35135;47.510;19.036;2022-07-30T01:48:45;4.20;;;3.80;;
35324;SDS011;35135;47.510;19.036;2022-07-30T01:51:14;4.05;;;3.65;;
35324;SDS011;35135;47.510;19.036;2022-07-30T01:53:43;4.15;;;3.75;;
35324;SDS011;35135;47.510;19.036;2022-07-30T01:56:15;4.22;;;3.38;;
35324;SDS011;35135;47.510;19.036;2022-07-30T01:58:49;3.80;;;3.50;;
35324;SDS011;35135;47.510;19.036;2022-07-30T02:01:20;4.55;;;3.10;;
35324;SDS011;35135;47.510;19.036;2022-07-30T02:03:57;3.50;;;3.05;;
35324;SDS011;35135;47.510;19.036;2022-07-30T02:06:31;4.93;;;3.42;;
35324;SDS011;35135;47.510;19.036;2022-07-30T02:09:12;3.72;;;3.38;;
35324;SDS011;35135;47.510;19.036;2022-07-30T02:11:44;4.47;;;4.10;;
35324;SDS011;35135;47.510;19.036;2022-07-30T02:14:54;4.57;;;3.50;;
35324;SDS011;35135;47.510;19.036;2022-07-30T02:17:28;5.32;;;3.63;;
35324;SDS011;35135;47.510;19.036;2022-07-30T02:20:02;5.35;;;3.55;;
35324;SDS011;35135;47.510;19.036;2022-07-30T02:22:32;5.45;;;3.72;;
35324;SDS011;35135;47.510;19.036;2022-07-30T02:25:03;4.45;;;3.83;;
35324;SDS011;35135;47.510;19.036;2022-07-30T02:27:36;4.63;;;3.60;;
35324;SDS011;35135;47.510;19.036;2022-07-30T02:30:06;4.95;;;3.85;;
35324;SDS011;35135;47.510;19.036;2022-07-30T02:32:36;5.60;;;4.00;;
35324;SDS011;35135;47.510;19.036;2022-07-30T02:35:10;4.10;;;3.80;;
35324;SDS011;35135;47.510;19.036;2022-07-30T02:37:46;3.92;;;3.63;;
35324;SDS011;35135;47.510;19.036;2022-07-30T02:40:17;3.90;;;3.60;;
35324;SDS011;35135;47.510;19.036;2022-07-30T02:45:17;4.35;;;3.95;;
35324;SDS011;35135;47.510;19.036;2022-07-30T02:47:55;4.57;;;4.15;;
35324;SDS011;35135;47.510;19.036;2022-07-30T02:50:26;4.47;;;4.07;;
35324;SDS011;35135;47.510;19.036;2022-07-30T02:52:55;5.07;;;3.83;;
35324;SDS011;35135;47.510;19.036;2022-07-30T02:55:27;3.97;;;3.60;;
35324;SDS011;35135;47.510;19.036;2022-07-30T02:58:05;3.90;;;3.60;;
35324;SDS011;35135;47.510;19.036;2022-07-30T03:00:32;4.95;;;4.03;;
35324;SDS011;35135;47.510;19.036;2022-07-30T03:03:03;5.50;;;4.07;;
35324;SDS011;35135;47.510;19.036;2022-07-30T03:05:36;4.57;;;4.18;;
35324;SDS011;35135;47.510;19.036;2022-07-30T03:08:10;4.35;;;4.00;;
35324;SDS011;35135;47.510;19.036;2022-07-30T03:10:40;5.32;;;4.10;;
35324;SDS011;35135;47.510;19.036;2022-07-30T03:13:11;4.72;;;4.32;;
35324;SDS011;35135;47.510;19.036;2022-07-30T03:15:41;4.65;;;4.20;;
35324;SDS011;35135;47.510;19.036;2022-07-30T03:18:17;3.55;;;3.25;;
35324;SDS011;35135;47.510;19.036;2022-07-30T03:20:48;5.10;;;3.95;;
35324;SDS011;35135;47.510;19.036;2022-07-30T03:23:26;5.07;;;4.03;;
35324;SDS011;35135;47.510;19.036;2022-07-30T03:26:00;5.25;;;3.78;;
35324;SDS011;35135;47.510;19.036;2022-07-30T03:28:37;4.22;;;3.35;;
35324;SDS011;35135;47.510;19.036;2022-07-30T03:31:05;4.88;;;4.03;;
35324;SDS011;35135;47.510;19.036;2022-07-30T03:33:34;4.07;;;3.40;;
35324;SDS011;35135;47.510;19.036;2022-07-30T03:36:03;4.22;;;3.83;;
35324;SDS011;35135;47.510;19.036;2022-07-30T03:38:37;4.60;;;3.67;;
35324;SDS011;35135;47.510;19.036;2022-07-30T03:41:07;4.45;;;3.53;;
35324;SDS011;35135;47.510;19.036;2022-07-30T03:43:44;4.15;;;3.70;;
35324;SDS011;35135;47.510;19.036;2022-07-30T03:46:13;5.43;;;3.60;;
35324;SDS011;35135;47.510;19.036;2022-07-30T03:48:43;4.35;;;3.78;;
35324;SDS011;35135;47.510;19.036;2022-07-30T03:51:12;4.25;;;3.85;;
35324;SDS011;35135;47.510;19.036;2022-07-30T03:53:42;4.50;;;3.97;;
35324;SDS011;35135;47.510;19.036;2022-07-30T03:56:12;4.32;;;3.60;;
35324;SDS011;35135;47.510;19.036;2022-07-30T03:58:41;4.35;;;3.33;;
35324;SDS011;35135;47.510;19.036;2022-07-30T04:01:16;3.85;;;3.45;;
35324;SDS011;35135;47.510;19.036;2022-07-30T04:03:44;4.78;;;3.63;;
35324;SDS011;35135;47.510;19.036;2022-07-30T04:06:18;5.18;;;3.53;;
35324;SDS011;35135;47.510;19.036;2022-07-30T04:08:48;4.93;;;3.72;;
35324;SDS011;35135;47.510;19.036;2022-07-30T04:11:17;3.47;;;3.17;;
35324;SDS011;35135;47.510;19.036;2022-07-30T04:13:43;3.85;;;3.38;;
35324;SDS011;35135;47.510;19.036;2022-07-30T04:16:17;3.80;;;3.50;;
35324;SDS011;35135;47.510;19.036;2022-07-30T04:18:57;5.07;;;3.30;;
35324;SDS011;35135;47.510;19.036;2022-07-30T04:21:26;3.63;;;3.33;;
35324;SDS011;35135;47.510;19.036;2022-07-30T04:23:54;4.47;;;3.45;;
35324;SDS011;35135;47.510;19.036;2022-07-30T04:26:23;5.93;;;3.60;;
35324;SDS011;35135;47.510;19.036;2022-07-30T04:28:53;4.32;;;3.67;;
35324;SDS011;35135;47.510;19.036;2022-07-30T04:31:22;5.47;;;3.53;;
35324;SDS011;35135;47.510;19.036;2022-07-30T04:33:52;3.55;;;3.25;;
35324;SDS011;35135;47.510;19.036;2022-07-30T04:36:22;4.18;;;3.20;;
35324;SDS011;35135;47.510;19.036;2022-07-30T04:38:50;4.30;;;3.85;;
35324;SDS011;35135;47.510;19.036;2022-07-30T04:41:17;3.83;;;3.05;;
35324;SDS011;35135;47.510;19.036;2022-07-30T04:43:45;4.50;;;3.08;;
35324;SDS011;35135;47.510;19.036;2022-07-30T04:46:14;6.68;;;3.85;;
35324;SDS011;35135;47.510;19.036;2022-07-30T04:48:43;3.72;;;3.42;;
35324;SDS011;35135;47.510;19.036;2022-07-30T04:51:19;3.58;;;3.28;;
35324;SDS011;35135;47.510;19.036;2022-07-30T04:53:55;4.80;;;3.70;;
35324;SDS011;35135;47.510;19.036;2022-07-30T04:56:25;3.63;;;3.33;;
35324;SDS011;35135;47.510;19.036;2022-07-30T04:58:55;3.83;;;3.42;;
35324;SDS011;35135;47.510;19.036;2022-07-30T05:01:26;3.92;;;3.28;;
35324;SDS011;35135;47.510;19.036;2022-07-30T05:03:58;3.20;;;2.90;;
35324;SDS011;35135;47.510;19.036;2022-07-30T05:06:26;3.80;;;3.50;;
35324;SDS011;35135;47.510;19.036;2022-07-30T05:08:56;3.85;;;3.55;;
35324;SDS011;35135;47.510;19.036;2022-07-30T05:11:25;4.15;;;3.50;;
35324;SDS011;35135;47.510;19.036;2022-07-30T05:13:53;3.50;;;3.20;;
35324;SDS011;35135;47.510;19.036;2022-07-30T05:16:22;3.70;;;3.30;;
35324;SDS011;35135;47.510;19.036;2022-07-30T05:18:50;4.30;;;3.33;;
35324;SDS011;35135;47.510;19.036;2022-07-30T05:21:23;3.50;;;3.20;;
35324;SDS011;35135;47.510;19.036;2022-07-30T05:23:54;3.47;;;3.17;;
35324;SDS011;35135;47.510;19.036;2022-07-30T05:26:24;4.72;;;3.65;;
35324;SDS011;35135;47.510;19.036;2022-07-30T05:28:52;9.02;;;3.70;;
35324;SDS011;35135;47.510;19.036;2022-07-30T05:31:21;3.78;;;3.45;;
35324;SDS011;35135;47.510;19.036;2022-07-30T05:33:48;3.90;;;3.60;;
35324;SDS011;35135;47.510;19.036;2022-07-30T05:36:17;4.38;;;3.92;;
35324;SDS011;35135;47.510;19.036;2022-07-30T05:38:47;3.75;;;3.20;;
35324;SDS011;35135;47.510;19.036;2022-07-30T05:41:14;4.63;;;3.50;;
35324;SDS011;35135;47.510;19.036;2022-07-30T05:43:43;3.95;;;3.58;;
35324;SDS011;35135;47.510;19.036;2022-07-30T05:46:12;5.15;;;3.72;;
35324;SDS011;35135;47.510;19.036;2022-07-30T05:48:42;4.55;;;4.15;;
35324;SDS011;35135;47.510;19.036;2022-07-30T05:51:10;5.43;;;3.42;;
35324;SDS011;35135;47.510;19.036;2022-07-30T05:53:39;3.65;;;3.08;;
35324;SDS011;35135;47.510;19.036;2022-07-30T05:56:06;4.15;;;3.55;;
35324;SDS011;35135;47.510;19.036;2022-07-30T05:58:37;4.53;;;3.20;;
35324;SDS011;35135;47.510;19.036;2022-07-30T06:01:07;3.85;;;3.40;;
35324;SDS011;35135;47.510;19.036;2022-07-30T06:03:33;4.57;;;3.75;;
35324;SDS011;35135;47.510;19.036;2022-07-30T06:06:05;4.78;;;3.40;;
35324;SDS011;35135;47.510;19.036;2022-07-30T06:08:32;3.75;;;3.20;;
35324;SDS011;35135;47.510;19.036;2022-07-30T06:11:05;3.83;;;3.47;;
35324;SDS011;35135;47.510;19.036;2022-07-30T06:13:34;3.85;;;3.17;;
35324;SDS011;35135;47.510;19.036;2022-07-30T06:16:03;4.10;;;3.30;;
35324;SDS011;35135;47.510;19.036;2022-07-30T06:18:32;4.60;;;3.58;;
35324;SDS011;35135;47.510;19.036;2022-07-30T06:21:01;4.40;;;3.33;;
35324;SDS011;35135;47.510;19.036;2022-07-30T06:23:30;3.65;;;3.35;;
35324;SDS011;35135;47.510;19.036;2022-07-30T06:25:56;4.13;;;3.55;;
35324;SDS011;35135;47.510;19.036;2022-07-30T06:28:25;4.05;;;3.65;;
35324;SDS011;35135;47.510;19.036;2022-07-30T06:30:52;4.00;;;3.30;;
35324;SDS011;35135;47.510;19.036;2022-07-30T06:33:21;4.68;;;3.83;;
35324;SDS011;35135;47.510;19.036;2022-07-30T06:35:51;4.72;;;3.58;;
35324;SDS011;35135;47.510;19.036;2022-07-30T06:38:19;3.88;;;3.25;;
35324;SDS011;35135;47.510;19.036;2022-07-30T06:40:46;4.15;;;3.70;;
35324;SDS011;35135;47.510;19.036;2022-07-30T06:43:12;4.03;;;3.63;;
35324;SDS011;35135;47.510;19.036;2022-07-30T06:45:41;4.03;;;3.65;;
35324;SDS011;35135;47.510;19.036;2022-07-30T06:48:12;6.45;;;3.83;;
35324;SDS011;35135;47.510;19.036;2022-07-30T06:50:41;4.03;;;3.40;;
35324;SDS011;35135;47.510;19.036;2022-07-30T06:53:15;4.72;;;3.88;;
35324;SDS011;35135;47.510;19.036;2022-07-30T06:55:43;3.40;;;3.10;;
35324;SDS011;35135;47.510;19.036;2022-07-30T06:58:11;5.68;;;3.55;;
35324;SDS011;35135;47.510;19.036;2022-07-30T07:00:40;5.35;;;3.58;;
35324;SDS011;35135;47.510;19.036;2022-07-30T07:03:09;5.22;;;3.53;;
35324;SDS011;35135;47.510;19.036;2022-07-30T07:05:36;4.78;;;3.80;;
35324;SDS011;35135;47.510;19.036;2022-07-30T07:08:06;3.78;;;3.20;;
35324;SDS011;35135;47.510;19.036;2022-07-30T07:10:34;4.35;;;3.40;;
35324;SDS011;35135;47.510;19.036;2022-07-30T07:13:00;5.82;;;3.63;;
35324;SDS011;35135;47.510;19.036;2022-07-30T07:15:29;4.60;;;3.38;;
35324;SDS011;35135;47.510;19.036;2022-07-30T07:17:59;7.20;;;3.60;;
35324;SDS011;35135;47.510;19.036;2022-07-30T07:20:27;5.07;;;3.20;;
35324;SDS011;35135;47.510;19.036;2022-07-30T07:22:53;4.22;;;3.42;;
35324;SDS011;35135;47.510;19.036;2022-07-30T07:25:23;6.07;;;3.53;;
35324;SDS011;35135;47.510;19.036;2022-07-30T07:27:51;4.13;;;3.08;;
35324;SDS011;35135;47.510;19.036;2022-07-30T07:30:19;4.32;;;3.50;;
35324;SDS011;35135;47.510;19.036;2022-07-30T07:32:48;5.25;;;3.67;;
35324;SDS011;35135;47.510;19.036;2022-07-30T07:35:14;5.25;;;3.40;;
35324;SDS011;35135;47.510;19.036;2022-07-30T07:37:40;3.63;;;3.30;;
35324;SDS011;35135;47.510;19.036;2022-07-30T07:40:07;5.03;;;3.63;;
35324;SDS011;35135;47.510;19.036;2022-07-30T07:42:36;4.25;;;3.20;;
35324;SDS011;35135;47.510;19.036;2022-07-30T07:45:02;4.47;;;3.45;;
35324;SDS011;35135;47.510;19.036;2022-07-30T07:47:43;3.95;;;3.55;;
35324;SDS011;35135;47.510;19.036;2022-07-30T07:50:12;4.13;;;3.17;;
35324;SDS011;35135;47.510;19.036;2022-07-30T07:52:41;3.75;;;3.15;;
35324;SDS011;35135;47.510;19.036;2022-07-30T07:55:13;6.35;;;3.72;;
35324;SDS011;35135;47.510;19.036;2022-07-30T08:00:12;3.97;;;3.58;;
35324;SDS011;35135;47.510;19.036;2022-07-30T08:02:45;5.63;;;3.60;;
35324;SDS011;35135;47.510;19.036;2022-07-30T08:05:14;3.63;;;3.22;;
35324;SDS011;35135;47.510;19.036;2022-07-30T08:07:43;4.50;;;3.30;;
35324;SDS011;35135;47.510;19.036;2022-07-30T08:10:15;3.47;;;3.08;;
35324;SDS011;35135;47.510;19.036;2022-07-30T08:12:47;5.93;;;3.33;;
35324;SDS011;35135;47.510;19.036;2022-07-30T08:15:16;4.30;;;3.25;;
35324;SDS011;35135;47.510;19.036;2022-07-30T08:17:44;3.90;;;3.50;;
35324;SDS011;35135;47.510;19.036;2022-07-30T08:20:12;6.22;;;3.45;;
35324;SDS011;35135;47.510;19.036;2022-07-30T08:22:41;3.25;;;2.95;;
35324;SDS011;35135;47.510;19.036;2022-07-30T08:25:08;3.95;;;3.28;;
35324;SDS011;35135;47.510;19.036;2022-07-30T08:27:37;4.85;;;3.70;;
35324;SDS011;35135;47.510;19.036;2022-07-30T08:30:06;4.72;;;3.13;;
35324;SDS011;35135;47.510;19.036;2022-07-30T08:32:39;4.18;;;3.20;;
35324;SDS011;35135;47.510;19.036;2022-07-30T08:35:05;4.38;;;3.25;;
35324;SDS011;35135;47.510;19.036;2022-07-30T08:37:35;4.45;;;3.30;;
35324;SDS011;35135;47.510;19.036;2022-07-30T08:40:06;3.63;;;3.10;;
35324;SDS011;35135;47.510;19.036;2022-07-30T08:42:35;4.45;;;3.05;;
35324;SDS011;35135;47.510;19.036;2022-07-30T08:45:04;5.40;;;3.53;;
35324;SDS011;35135;47.510;19.036;2022-07-30T08:47:34;6.82;;;3.55;;
35324;SDS011;35135;47.510;19.036;2022-07-30T08:50:06;3.72;;;3.15;;
35324;SDS011;35135;47.510;19.036;2022-07-30T08:52:36;5.45;;;3.25;;
35324;SDS011;35135;47.510;19.036;2022-07-30T08:55:05;4.68;;;3.53;;
35324;SDS011;35135;47.510;19.036;2022-07-30T08:57:34;3.88;;;3.30;;
35324;SDS011;35135;47.510;19.036;2022-07-30T09:00:04;5.32;;;4.15;;
35324;SDS011;35135;47.510;19.036;2022-07-30T09:02:33;5.00;;;3.78;;
35324;SDS011;35135;47.510;19.036;2022-07-30T09:05:03;5.13;;;3.35;;
35324;SDS011;35135;47.510;19.036;2022-07-30T09:07:30;4.10;;;3.08;;
35324;SDS011;35135;47.510;19.036;2022-07-30T09:10:00;5.38;;;3.90;;
35324;SDS011;35135;47.510;19.036;2022-07-30T09:12:34;4.13;;;3.70;;
35324;SDS011;35135;47.510;19.036;2022-07-30T09:15:10;4.72;;;3.65;;
35324;SDS011;35135;47.510;19.036;2022-07-30T09:20:27;3.63;;;3.22;;
35324;SDS011;35135;47.510;19.036;2022-07-30T09:22:59;5.28;;;3.75;;
35324;SDS011;35135;47.510;19.036;2022-07-30T09:25:41;6.05;;;3.40;;
35324;SDS011;35135;47.510;19.036;2022-07-30T09:28:11;4.07;;;3.60;;
35324;SDS011;35135;47.510;19.036;2022-07-30T09:30:46;4.05;;;3.55;;
35324;SDS011;35135;47.510;19.036;2022-07-30T09:33:29;5.18;;;3.88;;
35324;SDS011;35135;47.510;19.036;2022-07-30T09:36:07;7.07;;;4.20;;
35324;SDS011;35135;47.510;19.036;2022-07-30T09:41:41;5.68;;;4.57;;
35324;SDS011;35135;47.510;19.036;2022-07-30T09:44:08;4.40;;;4.00;;
35324;SDS011;35135;47.510;19.036;2022-07-30T09:46:47;4.70;;;4.20;;
35324;SDS011;35135;47.510;19.036;2022-07-30T09:49:19;5.25;;;4.57;;
35324;SDS011;35135;47.510;19.036;2022-07-30T09:51:54;5.55;;;4.45;;
35324;SDS011;35135;47.510;19.036;2022-07-30T09:54:21;6.10;;;4.80;;
35324;SDS011;35135;47.510;19.036;2022-07-30T09:57:08;6.20;;;4.93;;
35324;SDS011;35135;47.510;19.036;2022-07-30T09:59:37;5.88;;;4.50;;
35324;SDS011;35135;47.510;19.036;2022-07-30T10:02:14;6.13;;;4.85;;
35324;SDS011;35135;47.510;19.036;2022-07-30T10:04:43;5.40;;;4.90;;
35324;SDS011;35135;47.510;19.036;2022-07-30T10:07:19;9.23;;;5.18;;
35324;SDS011;35135;47.510;19.036;2022-07-30T10:09:48;7.95;;;5.43;;
35324;SDS011;35135;47.510;19.036;2022-07-30T10:12:19;6.35;;;5.38;;
35324;SDS011;35135;47.510;19.036;2022-07-30T10:14:48;6.30;;;5.00;;
35324;SDS011;35135;47.510;19.036;2022-07-30T10:17:19;8.85;;;5.55;;
35324;SDS011;35135;47.510;19.036;2022-07-30T10:19:46;5.32;;;4.80;;
35324;SDS011;35135;47.510;19.036;2022-07-30T10:22:15;7.28;;;4.63;;
35324;SDS011;35135;47.510;19.036;2022-07-30T10:24:42;8.30;;;5.82;;
35324;SDS011;35135;47.510;19.036;2022-07-30T10:27:10;5.63;;;5.03;;
35324;SDS011;35135;47.510;19.036;2022-07-30T10:29:39;7.32;;;5.10;;
35324;SDS011;35135;47.510;19.036;2022-07-30T10:32:10;6.03;;;5.40;;
35324;SDS011;35135;47.510;19.036;2022-07-30T10:34:42;7.03;;;5.97;;
35324;SDS011;35135;47.510;19.036;2022-07-30T10:37:16;7.45;;;5.40;;
35324;SDS011;35135;47.510;19.036;2022-07-30T10:43:05;7.00;;;5.57;;
35324;SDS011;35135;47.510;19.036;2022-07-30T10:46:08;6.57;;;5.72;;
35324;SDS011;35135;47.510;19.036;2022-07-30T10:48:40;8.10;;;6.47;;
35324;SDS011;35135;47.510;19.036;2022-07-30T10:51:11;6.38;;;5.43;;
35324;SDS011;35135;47.510;19.036;2022-07-30T10:53:42;7.03;;;5.35;;
35324;SDS011;35135;47.510;19.036;2022-07-30T10:56:21;6.93;;;5.10;;
35324;SDS011;35135;47.510;19.036;2022-07-30T10:59:06;6.30;;;5.35;;
35324;SDS011;35135;47.510;19.036;2022-07-30T11:06:49;6.55;;;5.13;;
35324;SDS011;35135;47.510;19.036;2022-07-30T11:09:36;5.88;;;5.07;;
35324;SDS011;35135;47.510;19.036;2022-07-30T11:12:04;6.28;;;4.50;;
35324;SDS011;35135;47.510;19.036;2022-07-30T11:17:15;6.68;;;5.18;;
35324;SDS011;35135;47.510;19.036;2022-07-30T11:22:32;5.88;;;5.25;;
35324;SDS011;35135;47.510;19.036;2022-07-30T11:25:05;6.25;;;5.65;;
35324;SDS011;35135;47.510;19.036;2022-07-30T11:27:44;7.47;;;5.60;;
35324;SDS011;35135;47.510;19.036;2022-07-30T11:32:47;5.85;;;5.30;;
35324;SDS011;35135;47.510;19.036;2022-07-30T11:35:15;6.20;;;4.90;;
35324;SDS011;35135;47.510;19.036;2022-07-30T11:38:03;6.50;;;4.90;;
35324;SDS011;35135;47.510;19.036;2022-07-30T11:40:37;5.35;;;4.65;;
35324;SDS011;35135;47.510;19.036;2022-07-30T11:43:39;6.15;;;5.18;;
35324;SDS011;35135;47.510;19.036;2022-07-30T11:46:13;5.20;;;4.25;;
35324;SDS011;35135;47.510;19.036;2022-07-30T11:48:54;5.25;;;4.50;;
35324;SDS011;35135;47.510;19.036;2022-07-30T11:51:21;4.63;;;4.22;;
35324;SDS011;35135;47.510;19.036;2022-07-30T11:56:27;4.28;;;3.88;;
35324;SDS011;35135;47.510;19.036;2022-07-30T11:59:06;5.50;;;4.28;;
35324;SDS011;35135;47.510;19.036;2022-07-30T12:01:34;4.80;;;4.10;;
35324;SDS011;35135;47.510;19.036;2022-07-30T12:04:06;4.40;;;4.00;;
35324;SDS011;35135;47.510;19.036;2022-07-30T12:06:41;3.85;;;3.55;;
35324;SDS011;35135;47.510;19.036;2022-07-30T12:09:10;4.50;;;4.10;;
35324;SDS011;35135;47.510;19.036;2022-07-30T12:11:36;3.70;;;3.40;;
35324;SDS011;35135;47.510;19.036;2022-07-30T12:14:03;4.03;;;3.63;;
35324;SDS011;35135;47.510;19.036;2022-07-30T12:16:30;4.00;;;3.65;;
35324;SDS011;35135;47.510;19.036;2022-07-30T12:19:03;4.55;;;3.97;;
35324;SDS011;35135;47.510;19.036;2022-07-30T12:21:32;4.25;;;3.88;;
35324;SDS011;35135;47.510;19.036;2022-07-30T12:24:03;4.03;;;3.60;;
35324;SDS011;35135;47.510;19.036;2022-07-30T12:26:38;3.80;;;3.38;;
35324;SDS011;35135;47.510;19.036;2022-07-30T12:29:05;4.43;;;3.75;;
35324;SDS011;35135;47.510;19.036;2022-07-30T12:31:43;4.10;;;3.67;;
35324;SDS011;35135;47.510;19.036;2022-07-30T12:34:21;4.28;;;3.33;;
35324;SDS011;35135;47.510;19.036;2022-07-30T12:36:49;4.22;;;3.92;;
35324;SDS011;35135;47.510;19.036;2022-07-30T12:39:25;3.85;;;3.55;;
35324;SDS011;35135;47.510;19.036;2022-07-30T12:41:54;3.72;;;3.42;;
35324;SDS011;35135;47.510;19.036;2022-07-30T12:47:25;3.45;;;2.92;;
35324;SDS011;35135;47.510;19.036;2022-07-30T12:49:57;3.08;;;2.80;;
35324;SDS011;35135;47.510;19.036;2022-07-30T12:52:33;3.92;;;2.53;;
35324;SDS011;35135;47.510;19.036;2022-07-30T12:57:52;3.00;;;2.80;;
35324;SDS011;35135;47.510;19.036;2022-07-30T13:00:54;2.80;;;2.60;;
35324;SDS011;35135;47.510;19.036;2022-07-30T13:03:23;2.78;;;2.55;;
35324;SDS011;35135;47.510;19.036;2022-07-30T13:05:53;2.20;;;2.00;;
35324;SDS011;35135;47.510;19.036;2022-07-30T13:08:20;2.67;;;2.42;;
35324;SDS011;35135;47.510;19.036;2022-07-30T13:11:12;2.35;;;2.10;;
35324;SDS011;35135;47.510;19.036;2022-07-30T13:13:40;2.53;;;1.70;;
35324;SDS011;35135;47.510;19.036;2022-07-30T13:16:09;2.35;;;1.70;;
35324;SDS011;35135;47.510;19.036;2022-07-30T13:18:40;1.65;;;1.52;;
35324;SDS011;35135;47.510;19.036;2022-07-30T13:21:07;1.42;;;1.33;;
35324;SDS011;35135;47.510;19.036;2022-07-30T13:23:37;1.20;;;1.10;;
35324;SDS011;35135;47.510;19.036;2022-07-30T13:26:05;2.05;;;1.30;;
35324;SDS011;35135;47.510;19.036;2022-07-30T13:28:34;1.90;;;1.42;;
35324;SDS011;35135;47.510;19.036;2022-07-30T13:31:02;1.88;;;1.20;;
35324;SDS011;35135;47.510;19.036;2022-07-30T13:33:30;1.27;;;1.17;;
35324;SDS011;35135;47.510;19.036;2022-07-30T13:35:56;1.80;;;1.30;;
35324;SDS011;35135;47.510;19.036;2022-07-30T13:38:23;1.30;;;1.20;;
35324;SDS011;35135;47.510;19.036;2022-07-30T13:40:52;1.67;;;1.08;;
35324;SDS011;35135;47.510;19.036;2022-07-30T13:43:19;1.30;;;1.20;;
35324;SDS011;35135;47.510;19.036;2022-07-30T13:45:47;1.73;;;1.20;;
35324;SDS011;35135;47.510;19.036;2022-07-30T13:48:14;1.20;;;1.10;;
35324;SDS011;35135;47.510;19.036;2022-07-30T13:50:43;0.85;;;0.80;;
35324;SDS011;35135;47.510;19.036;2022-07-30T13:53:12;1.35;;;1.00;;
35324;SDS011;35135;47.510;19.036;2022-07-30T13:55:41;1.00;;;0.90;;
35324;SDS011;35135;47.510;19.036;2022-07-30T13:58:10;1.05;;;0.90;;
35324;SDS011;35135;47.510;19.036;2022-07-30T14:00:39;1.00;;;0.90;;
35324;SDS011;35135;47.510;19.036;2022-07-30T14:03:11;1.20;;;1.10;;
35324;SDS011;35135;47.510;19.036;2022-07-30T14:05:40;1.00;;;0.90;;
35324;SDS011;35135;47.510;19.036;2022-07-30T14:10:44;1.33;;;0.85;;
35324;SDS011;35135;47.510;19.036;2022-07-30T14:13:12;1.30;;;0.90;;
35324;SDS011;35135;47.510;19.036;2022-07-30T14:15:38;1.50;;;1.00;;
35324;SDS011;35135;47.510;19.036;2022-07-30T14:18:07;1.40;;;1.00;;
35324;SDS011;35135;47.510;19.036;2022-07-30T14:20:35;1.13;;;0.93;;
35324;SDS011;35135;47.510;19.036;2022-07-30T14:23:00;1.30;;;0.90;;
35324;SDS011;35135;47.510;19.036;2022-07-30T14:25:26;1.00;;;0.90;;
35324;SDS011;35135;47.510;19.036;2022-07-30T14:27:55;0.85;;;0.77;;
35324;SDS011;35135;47.510;19.036;2022-07-30T14:30:23;0.60;;;0.60;;
35324;SDS011;35135;47.510;19.036;2022-07-30T14:32:51;0.85;;;0.80;;
35324;SDS011;35135;47.510;19.036;2022-07-30T14:35:19;1.10;;;0.70;;
35324;SDS011;35135;47.510;19.036;2022-07-30T14:37:45;0.70;;;0.70;;
35324;SDS011;35135;47.510;19.036;2022-07-30T14:40:15;0.88;;;0.88;;
35324;SDS011;35135;47.510;19.036;2022-07-30T14:42:45;0.68;;;0.63;;
35324;SDS011;35135;47.510;19.036;2022-07-30T14:45:17;0.93;;;0.80;;
35324;SDS011;35135;47.510;19.036;2022-07-30T14:47:43;0.90;;;0.60;;
35324;SDS011;35135;47.510;19.036;2022-07-30T14:50:09;1.15;;;1.00;;
35324;SDS011;35135;47.510;19.036;2022-07-30T14:52:36;0.75;;;0.75;;
35324;SDS011;35135;47.510;19.036;2022-07-30T14:55:11;0.85;;;0.80;;
35324;SDS011;35135;47.510;19.036;2022-07-30T14:57:38;1.13;;;0.82;;
35324;SDS011;35135;47.510;19.036;2022-07-30T15:00:12;0.95;;;0.90;;
35324;SDS011;35135;47.510;19.036;2022-07-30T15:02:40;1.20;;;1.10;;
35324;SDS011;35135;47.510;19.036;2022-07-30T15:05:06;1.00;;;0.90;;
35324;SDS011;35135;47.510;19.036;2022-07-30T15:07:34;1.10;;;1.00;;
35324;SDS011;35135;47.510;19.036;2022-07-30T15:10:02;1.10;;;1.00;;
35324;SDS011;35135;47.510;19.036;2022-07-30T15:12:31;1.00;;;0.90;;
35324;SDS011;35135;47.510;19.036;2022-07-30T15:14:58;1.33;;;1.23;;
35324;SDS011;35135;47.510;19.036;2022-07-30T15:17:30;1.30;;;1.20;;
35324;SDS011;35135;47.510;19.036;2022-07-30T15:19:56;1.30;;;1.20;;
35324;SDS011;35135;47.510;19.036;2022-07-30T15:22:23;1.20;;;1.10;;
35324;SDS011;35135;47.510;19.036;2022-07-30T15:24:50;1.20;;;1.10;;
35324;SDS011;35135;47.510;19.036;2022-07-30T15:27:19;2.08;;;1.10;;
35324;SDS011;35135;47.510;19.036;2022-07-30T15:29:46;1.38;;;0.95;;
35324;SDS011;35135;47.510;19.036;2022-07-30T15:32:12;1.17;;;1.00;;
35324;SDS011;35135;47.510;19.036;2022-07-30T15:34:40;1.15;;;1.00;;
35324;SDS011;35135;47.510;19.036;2022-07-30T15:37:06;1.10;;;1.00;;
35324;SDS011;35135;47.510;19.036;2022-07-30T15:39:34;1.92;;;0.77;;